Latest Weather Observations for Gabo Island

IDN60801

Issued at 10:05 am EDT Saturday 25 October 2014 (issued every 30 minutes, with the page automatically refreshed every 10 minutes)

About weather observations | Map of weather stations | Latest weather observations for NSW | Other Formats
Station Details ID: 084016 Name: GABO ISLAND LIGHTHOUSE Lat: -37.57 Lon: 149.92 Height: 15.2 m
Data from the previous 72 hours. | See also: Recent months at Gabo Island
Date/Time
EDT
Temp
°C
App
Temp
°C
Dew
Point
Rel
Hum
%
Delta-T
°C
Wind Press
QNH
hPa
Press
MSL
hPa
Rain
since 9 am
mm
Dir
 
Spd
km/h
Gust
km/h
Spd
kts
Gust
kts
25/10:00am 15.7 10.0 13.0 84 1.5 SW 35 43 19 23 1016.9 - 0.0
25/09:30am 15.8 10.5 13.1 84 1.5 SW 33 39 18 21 1016.9 - 0.0
25/09:00am 15.8 10.2 13.3 85 1.4 SW 35 43 19 23 1016.8 1016.8 0.0
25/08:30am 15.8 9.8 13.3 85 1.4 SW 37 43 20 23 1016.7 - 0.0
25/08:00am 15.7 10.1 13.4 86 1.3 SW 35 43 19 23 1016.7 - 0.0
25/07:30am 15.7 9.4 13.4 86 1.3 SW 39 46 21 25 1016.3 - 0.0
25/07:00am 15.8 8.5 13.3 85 1.4 SW 44 50 24 27 1015.8 - 0.0
25/06:30am 15.7 9.5 13.7 88 1.1 SW 39 44 21 24 1015.7 - 0.0
25/06:00am 15.8 9.1 13.3 85 1.4 SW 41 48 22 26 1015.1 1015.1 0.0
25/05:30am 16.0 11.5 13.7 86 1.3 SW 30 39 16 21 1014.7 - 0.0
25/05:00am 16.3 13.4 14.0 86 1.3 W 22 26 12 14 1014.4 - 0.0
25/04:30am 16.4 13.4 13.6 83 1.6 W 22 26 12 14 1013.9 - 0.0
25/04:20am 16.1 13.1 13.8 86 1.3 W 22 26 12 14 1013.9 - 0.0
25/04:00am 16.7 10.9 13.9 83 1.6 SW 37 44 20 24 1013.9 - 0.0
25/03:54am 16.9 11.0 13.5 80 1.9 SW 37 44 20 24 1013.8 - 0.0
25/03:30am 16.9 13.0 13.3 79 2.0 W 26 32 14 17 1013.3 - 0.0
25/03:00am 16.8 12.7 13.8 82 1.7 WSW 28 35 15 19 1013.2 1013.2 0.0
25/02:30am 16.8 12.0 14.0 83 1.6 WSW 32 39 17 21 1013.1 - 0.0
25/02:00am 16.7 12.9 14.8 88 1.1 WSW 28 35 15 19 1012.7 - 0.0
25/01:30am 16.7 15.1 16.0 96 0.4 WSW 19 20 10 11 1012.7 - 0.0
25/01:00am 16.0 15.6 15.3 96 0.4 WSW 11 13 6 7 1012.7 - 0.0
25/12:30am 16.1 16.6 15.6 97 0.3 N 7 9 4 5 1012.5 - 0.0
25/12:00am 16.2 15.5 15.5 96 0.4 NNE 13 13 7 7 1012.2 1012.2 0.0
 
Date/Time
EDT
Temp
°C
App
Temp
°C
Dew
Point
Rel
Hum
%
Delta-T
°C
Wind Press
QNH
hPa
Press
MSL
hPa
Rain
since 9 am
mm
Dir
 
Spd
km/h
Gust
km/h
Spd
kts
Gust
kts
24/11:30pm 15.9 14.8 15.4 97 0.3 NNE 15 17 8 9 1012.0 - 0.0
24/11:00pm 16.4 16.2 15.7 96 0.4 NNE 11 15 6 8 1012.2 - 0.0
24/10:30pm 16.9 16.8 16.1 95 0.5 NNE 11 15 6 8 1012.0 - 0.0
24/10:00pm 17.0 16.5 16.0 94 0.6 NNE 13 17 7 9 1012.1 - 0.0
24/09:30pm 16.7 14.8 15.7 94 0.6 NNE 20 24 11 13 1011.9 - 0.0
24/09:00pm 16.7 13.6 15.7 94 0.6 NE 26 30 14 16 1011.6 1011.6 0.0
24/08:30pm 17.3 14.3 15.8 91 0.9 NE 26 30 14 16 1011.5 - 0.0
24/08:00pm 18.2 14.7 16.4 89 1.1 NE 30 35 16 19 1011.0 - 0.0
24/07:30pm 17.9 15.0 16.2 90 1.0 NNE 26 35 14 19 1011.1 - 0.0
24/07:00pm 18.3 14.2 16.5 89 1.1 NNE 33 41 18 22 1010.6 - 0.0
24/06:30pm 18.5 14.5 16.7 89 1.1 NE 33 41 18 22 1010.5 - 0.0
24/06:00pm 18.0 11.8 16.5 91 0.9 NE 44 52 24 28 1010.0 1010.1 0.0
24/05:30pm 18.2 12.2 17.0 93 0.7 NE 44 56 24 30 1009.8 - 0.0
24/05:00pm 19.0 12.4 17.2 89 1.1 NE 48 59 26 32 1009.7 - 0.0
24/04:30pm 18.6 11.7 16.6 88 1.2 NE 48 61 26 33 1010.0 - 0.0
24/04:00pm 19.5 12.1 17.2 86 1.4 NE 52 63 28 34 1010.2 - 0.0
24/03:30pm 19.4 12.0 17.1 86 1.4 NE 52 63 28 34 1010.3 - 0.0
24/03:00pm 19.9 11.5 17.1 84 1.7 NE 57 69 31 37 1010.6 1010.6 0.0
24/02:35pm 19.8 11.6 17.0 84 1.7 NNE 56 74 30 40 1010.9 - 0.0
24/02:30pm 19.8 11.4 17.2 85 1.6 NNE 57 74 31 40 1010.9 - 0.0
24/02:12pm 19.6 11.4 17.1 85 1.5 NE 56 74 30 40 1011.1 - 0.0
24/02:00pm 19.3 11.0 16.8 85 1.5 NE 56 65 30 35 1011.5 - 0.0
24/01:30pm 18.6 11.3 16.6 88 1.2 NE 50 61 27 33 1012.1 - 0.0
24/01:00pm 18.7 11.4 16.5 87 1.3 NNE 50 61 27 33 1012.7 - 0.0
24/12:30pm 19.0 11.8 16.7 86 1.4 NE 50 65 27 35 1012.9 - 0.0
24/12:00pm 19.4 11.2 17.1 86 1.4 NE 56 69 30 37 1013.1 1013.2 0.0
24/11:30am 18.8 11.2 16.8 88 1.2 NE 52 67 28 36 1013.8 - 0.0
24/11:00am 18.6 11.0 16.8 89 1.1 NE 52 65 28 35 1014.5 - 0.0
24/10:30am 17.9 11.4 16.6 92 0.8 NE 46 54 25 29 1015.1 - 0.0
24/10:00am 18.0 11.2 16.7 92 0.8 NE 48 54 26 29 1015.7 - 0.0
24/09:30am 18.0 10.8 16.7 92 0.8 NE 50 57 27 31 1015.7 - 0.0
24/09:00am 17.8 11.9 16.6 93 0.7 NE 43 48 23 26 1016.2 1016.2 2.0
24/08:30am 17.6 13.3 16.8 95 0.5 NE 35 41 19 22 1016.7 - 2.0
24/08:00am 17.1 12.2 16.3 95 0.5 NE 37 44 20 24 1016.8 - 2.0
24/07:30am 17.1 11.8 16.4 96 0.4 NE 39 46 21 25 1016.9 - 2.0
24/07:00am 17.1 11.8 16.4 96 0.4 NE 39 44 21 24 1016.9 - 2.0
24/06:30am 17.1 12.0 16.8 98 0.2 NE 39 46 21 25 1016.8 - 2.0
24/06:00am 17.1 11.1 16.8 98 0.2 ENE 44 52 24 28 1016.4 1016.4 2.0
24/05:30am 17.2 12.3 16.4 95 0.5 NE 37 48 20 26 1017.7 - 0.4
24/05:00am 17.0 11.0 17.0 100 0.0 NE 44 50 24 27 1016.4 - 0.4
24/04:30am 17.0 13.0 16.3 96 0.4 NE 32 35 17 19 1017.0 - 0.4
24/04:00am 17.0 13.2 16.7 98 0.2 NE 32 37 17 20 1017.2 - 0.4
24/03:30am 17.0 15.0 16.5 97 0.3 NE 22 26 12 14 1018.2 - 0.4
24/03:00am 17.2 14.8 16.5 96 0.4 NNE 24 28 13 15 1018.2 1018.3 0.4
24/02:30am 16.9 14.9 16.4 97 0.3 NE 22 26 12 14 1018.3 - 0.2
24/02:00am 17.0 15.0 16.5 97 0.3 NE 22 26 12 14 1018.5 - 0.2
24/01:30am 17.0 15.8 16.0 94 0.6 NNE 17 20 9 11 1019.2 - 0.2
24/01:00am 16.6 16.0 15.7 94 0.5 NNE 13 17 7 9 1019.4 - 0.0
24/12:30am 16.6 16.4 15.7 94 0.5 NNE 11 15 6 8 1019.7 - 0.0
24/12:00am 16.5 15.9 15.6 94 0.5 NNE 13 17 7 9 1019.9 1019.9 0.0
 
Date/Time
EDT
Temp
°C
App
Temp
°C
Dew
Point
Rel
Hum
%
Delta-T
°C
Wind Press
QNH
hPa
Press
MSL
hPa
Rain
since 9 am
mm
Dir
 
Spd
km/h
Gust
km/h
Spd
kts
Gust
kts
23/11:30pm 16.6 16.4 15.7 94 0.5 NNE 11 13 6 7 1019.9 - 0.0
23/11:00pm 16.6 18.1 15.7 94 0.5 NNW 2 7 1 4 1020.3 - 0.0
23/10:30pm 16.4 17.0 15.7 96 0.4 N 7 9 4 5 1020.1 - 0.0
23/10:00pm 16.3 16.8 15.6 96 0.4 E 7 9 4 5 1020.0 - 0.0
23/09:30pm 16.5 17.0 15.5 94 0.6 SSE 7 13 4 7 1019.9 - 0.0
23/09:00pm 16.7 16.5 15.7 94 0.6 S 11 15 6 8 1019.8 1019.9 0.0
23/08:30pm 16.6 16.7 15.6 94 0.6 W 9 11 5 6 1020.5 - 0.0
23/08:00pm 16.8 16.6 15.6 93 0.7 W 11 15 6 8 1020.4 - 0.0
23/07:30pm 16.9 17.5 15.7 93 0.7 W 7 9 4 5 1019.5 - 0.0
23/07:00pm 16.8 16.9 15.6 93 0.7 WSW 9 11 5 6 1019.1 - 0.0
23/06:30pm 16.9 16.7 15.7 93 0.7 SW 11 13 6 7 1019.2 - 0.0
23/06:00pm 17.1 16.9 15.7 91 0.8 WSW 11 15 6 8 1019.4 1019.3 0.0
23/05:30pm 17.3 16.7 15.6 90 1.0 SW 13 17 7 9 1019.3 - 0.0
23/05:00pm 17.5 16.1 15.6 89 1.1 SW 17 19 9 10 1019.1 - 0.0
23/04:30pm 17.8 16.5 15.8 88 1.2 WSW 17 20 9 11 1019.1 - 0.0
23/04:00pm 18.3 17.5 16.1 87 1.3 SW 15 17 8 9 1018.7 - 0.0
23/03:30pm 17.9 16.0 15.7 87 1.3 SSW 20 24 11 13 1018.5 - 0.0
23/03:00pm 19.1 17.0 16.3 84 1.7 SSW 22 28 12 15 1018.6 1018.6 0.0
23/02:30pm 17.8 15.0 15.4 86 1.4 SSW 24 28 13 15 1018.6 - 0.0
23/02:00pm 17.7 13.8 15.5 87 1.3 SSW 30 33 16 18 1018.7 - 0.0
23/01:30pm 17.5 13.0 15.3 87 1.3 SSW 33 37 18 20 1018.7 - 0.0
23/01:00pm 17.8 13.9 15.6 87 1.3 SSW 30 35 16 19 1018.5 - 0.0
23/12:30pm 18.1 13.7 15.2 83 1.7 SW 32 37 17 20 1018.7 - 0.0
23/12:00pm 18.3 14.2 14.9 80 2.0 SW 30 33 16 18 1018.9 1018.9 0.0
23/11:30am 19.2 16.7 15.1 77 2.4 WSW 22 26 12 14 1019.0 - 0.0
23/11:00am 19.1 16.5 15.0 77 2.4 SW 22 26 12 14 1019.0 - 0.0
23/10:30am 19.4 16.4 14.8 75 2.7 SW 24 28 13 15 1019.0 - 0.0
23/10:00am 19.0 16.3 14.5 75 2.6 WSW 22 28 12 15 1018.8 - 0.0
23/09:30am 19.8 19.8 13.7 68 3.5 SSW 6 9 3 5 1017.9 - 0.0
23/09:00am 19.4 19.1 14.4 73 2.9 NNE 9 13 5 7 1017.7 1017.7 0.0
23/08:30am 20.3 19.9 13.1 63 4.1 SE 7 11 4 6 1016.8 - 0.0
23/08:00am 20.6 19.3 12.6 60 4.5 W 11 15 6 8 1017.3 - 0.0
23/07:30am 19.1 16.7 12.5 65 3.7 WNW 17 24 9 13 1017.2 - 0.0
23/07:00am 17.6 15.5 12.4 71 2.9 WNW 15 20 8 11 1017.2 - 0.0
23/06:30am 15.6 13.8 13.3 86 1.3 WNW 15 20 8 11 1017.2 - 0.0
23/06:00am 15.6 13.0 13.3 86 1.3 WNW 19 20 10 11 1016.5 1016.6 0.0
23/05:30am 16.0 14.2 13.3 84 1.5 WNW 15 19 8 10 1016.1 - 0.0
23/05:00am 15.5 12.5 13.7 89 1.0 SW 22 26 12 14 1016.4 - 0.0
23/04:30am 15.7 14.5 14.0 90 1.0 NNE 13 17 7 9 1015.2 - 0.0
23/04:00am 15.4 15.3 13.4 88 1.1 WNW 6 9 3 5 1015.5 - 0.0
23/03:30am 15.6 15.7 13.8 89 1.0 S 6 7 3 4 1015.6 - 0.0
23/03:00am 15.7 12.6 13.4 86 1.3 NNE 22 24 12 13 1015.5 1015.5 0.0
23/02:30am 15.6 12.0 13.1 85 1.4 N 24 30 13 16 1015.6 - 0.0
23/02:00am 15.4 12.9 13.4 88 1.1 NNE 19 20 10 11 1016.0 - 0.0
23/01:30am 15.5 13.3 13.2 86 1.3 NNE 17 20 9 11 1016.6 - 0.0
23/01:00am 15.0 13.3 12.6 85 1.3 N 13 17 7 9 1017.1 - 0.0
23/12:30am 15.1 13.5 12.7 85 1.3 N 13 15 7 8 1017.2 - 0.0
23/12:00am 15.7 13.5 13.2 85 1.4 NNE 17 20 9 11 1017.2 1017.2 0.0
 
Date/Time
EDT
Temp
°C
App
Temp
°C
Dew
Point
Rel
Hum
%
Delta-T
°C
Wind Press
QNH
hPa
Press
MSL
hPa
Rain
since 9 am
mm
Dir
 
Spd
km/h
Gust
km/h
Spd
kts
Gust
kts
22/11:30pm 15.8 13.2 13.1 84 1.5 N 19 22 10 12 1017.3 - 0.0
22/11:00pm 16.0 12.7 12.9 82 1.7 N 22 26 12 14 1017.4 - 0.0
22/10:30pm 16.3 12.7 12.9 80 1.9 N 24 30 13 16 1017.6 - 0.0
22/10:00pm 16.3 12.7 12.9 80 1.9 NNE 24 28 13 15 1017.8 - 0.0
22/09:30pm 16.5 13.2 12.7 78 2.1 NNE 22 26 12 14 1018.0 - 0.0
22/09:00pm 16.7 13.3 12.5 76 2.3 NNE 22 28 12 15 1018.3 1018.3 0.0
22/08:30pm 16.7 12.9 12.3 75 2.4 NNE 24 28 13 15 1018.0 - 0.0
22/08:00pm 16.9 12.3 12.4 75 2.5 NNE 28 32 15 17 1017.7 - 0.0
22/07:30pm 17.1 12.2 12.6 75 2.5 NNE 30 35 16 19 1017.6 - 0.0
22/07:00pm 17.4 11.6 12.7 74 2.6 NNE 35 39 19 21 1017.5 - 0.0
22/06:30pm 17.7 11.5 12.7 72 2.8 NNE 37 43 20 23 1017.3 - 0.0
22/06:00pm 18.1 11.9 12.5 70 3.1 NNE 37 43 20 23 1017.4 1017.4 0.0
22/05:30pm 18.3 12.1 12.6 69 3.2 NNE 37 43 20 23 1017.5 - 0.0
22/05:00pm 18.5 11.4 12.2 66 3.5 NNE 41 48 22 26 1017.6 - 0.0
22/04:30pm 18.6 11.5 12.1 66 3.6 NNE 41 48 22 26 1017.7 - 0.0
22/04:00pm 18.9 11.7 12.0 64 3.8 NNE 41 48 22 26 1017.9 - 0.0
22/03:30pm 19.0 11.4 11.7 62 4.0 NNE 43 50 23 27 1018.2 - 0.0
22/03:00pm 19.0 10.9 10.9 59 4.4 NNE 44 54 24 29 1018.4 1018.5 0.0
22/02:30pm 19.0 11.1 11.3 61 4.2 NNE 44 54 24 29 1018.8 - 0.0
22/02:00pm 19.0 10.2 10.9 59 4.4 NNE 48 57 26 31 1019.1 - 0.0
22/01:30pm 18.9 10.0 10.5 58 4.5 NNE 48 59 26 32 1019.2 - 0.0
22/01:00pm 18.7 9.7 10.3 58 4.5 NNE 48 57 26 31 1019.6 - 0.0
22/12:30pm 18.5 9.4 10.0 57 4.5 NNE 48 59 26 32 1020.0 - 0.0
22/12:00pm 18.5 9.2 9.3 55 4.8 NNE 48 57 26 31 1020.5 1020.5 0.0
22/11:30am 18.6 9.4 9.5 55 4.8 NNE 48 59 26 32 1021.1 - 0.0
22/11:00am 18.1 8.8 9.3 56 4.6 NNE 48 59 26 32 1021.4 - 0.0
22/10:30am 17.7 8.4 9.0 56 4.5 NNE 48 61 26 33 1021.9 - 0.0

Other Formats:

Comma delimited format used in spreadsheet applications
http://www.bom.gov.au/fwo/IDN60801/IDN60801.94933.axf

JavaScript Object Notation format (JSON) in row-major order
http://www.bom.gov.au/fwo/IDN60801/IDN60801.94933.json